createdAt,value
2023-05-10T00:01:04.224Z,100246.16
2023-05-10T00:03:31.811Z,100240.25
2023-05-10T00:06:05.966Z,100238.38
2023-05-10T00:08:33.173Z,100234.09
2023-05-10T00:11:00.650Z,100238.38
2023-05-10T00:13:30.870Z,100235.97
2023-05-10T00:16:05.288Z,100237.88
2023-05-10T00:18:32.488Z,100239.75
2023-05-10T00:21:03.246Z,100233.56
2023-05-10T00:23:33.979Z,100236.25
2023-05-10T00:26:07.094Z,100219.63
2023-05-10T00:28:34.823Z,100225.53
2023-05-10T00:31:04.545Z,100219.63
2023-05-10T00:33:31.727Z,100225.00
2023-05-10T00:36:03.783Z,100223.41
2023-05-10T00:38:30.961Z,100225.78
2023-05-10T00:41:01.360Z,100212.66
2023-05-10T00:43:32.657Z,100208.09
2023-05-10T00:46:06.148Z,100211.03
2023-05-10T00:48:39.827Z,100206.75
2023-05-10T00:51:07.077Z,100203.56
2023-05-10T00:53:38.736Z,100208.66
2023-05-10T00:56:12.776Z,100207.06
2023-05-10T00:58:43.812Z,100200.88
2023-05-10T01:01:11.596Z,100211.62
2023-05-10T01:03:41.866Z,100216.16
2023-05-10T01:06:09.094Z,100200.66
2023-05-10T01:08:39.525Z,100204.13
2023-05-10T01:11:10.436Z,100199.84
2023-05-10T01:13:40.968Z,100193.66
2023-05-10T01:16:11.798Z,100191.25
2023-05-10T01:18:43.694Z,100184.31
2023-05-10T01:21:37.124Z,100182.91
2023-05-10T01:24:10.369Z,100179.72
2023-05-10T01:26:46.468Z,100183.22
2023-05-10T01:29:19.572Z,100185.38
2023-05-10T01:32:05.499Z,100182.72
2023-05-10T01:34:46.698Z,100181.09
2023-05-10T01:37:17.867Z,100175.72
2023-05-10T01:39:51.197Z,100175.72
2023-05-10T01:42:28.016Z,100181.09
2023-05-10T01:44:58.712Z,100182.16
2023-05-10T01:47:31.975Z,100178.69
2023-05-10T01:50:02.949Z,100187.53
2023-05-10T01:52:43.252Z,100183.25
2023-05-10T01:55:13.518Z,100189.13
2023-05-10T01:57:46.390Z,100187.00
2023-05-10T02:00:13.677Z,100185.94
2023-05-10T02:02:42.450Z,100185.94
2023-05-10T02:05:14.617Z,100185.41
2023-05-10T02:07:48.609Z,100185.41
2023-05-10T02:10:19.378Z,100168.50
2023-05-10T02:12:48.795Z,100174.69
2023-05-10T02:15:18.845Z,100178.16
2023-05-10T02:17:50.913Z,100167.72
2023-05-10T02:20:20.803Z,100174.69
2023-05-10T02:22:52.453Z,100172.00
2023-05-10T02:25:21.185Z,100173.06
2023-05-10T02:27:52.837Z,100168.50
2023-05-10T02:30:20.330Z,100163.94
2023-05-10T02:32:48.664Z,100158.56
2023-05-10T02:35:16.701Z,100164.50
2023-05-10T02:37:48.332Z,100169.84
2023-05-10T02:40:18.081Z,100164.22
2023-05-10T02:42:46.482Z,100167.19
2023-05-10T02:45:16.872Z,100159.97
2023-05-10T02:47:44.206Z,100165.06
2023-05-10T02:50:11.809Z,100163.19
2023-05-10T02:52:41.440Z,100162.91
2023-05-10T02:55:10.848Z,100167.47
2023-05-10T02:57:40.313Z,100166.37
2023-05-10T03:00:08.099Z,100169.06
2023-05-10T03:02:42.353Z,100170.94
2023-05-10T03:05:16.409Z,100169.34
2023-05-10T03:07:51.342Z,100163.44
2023-05-10T03:10:19.645Z,100163.44
2023-05-10T03:13:23.154Z,100165.06
2023-05-10T03:16:10.160Z,100164.84
2023-05-10T03:18:56.221Z,100166.66
2023-05-10T03:21:27.786Z,100161.84
2023-05-10T03:24:05.686Z,100156.50
2023-05-10T03:26:34.250Z,100156.50
2023-05-10T03:29:02.088Z,100156.50
2023-05-10T03:31:32.376Z,100158.09
2023-05-10T03:34:05.987Z,100149.53
2023-05-10T03:36:33.544Z,100158.66
2023-05-10T03:39:00.731Z,100158.66
2023-05-10T03:41:31.557Z,100166.44
2023-05-10T03:43:58.782Z,100162.37
2023-05-10T03:46:26.199Z,100166.16
2023-05-10T03:48:56.556Z,100166.16
2023-05-10T03:51:23.809Z,100179.06
2023-05-10T03:53:50.883Z,100171.53
2023-05-10T03:56:25.210Z,100177.44
2023-05-10T03:58:53.112Z,100186.03
2023-05-10T04:01:20.462Z,100178.22
2023-05-10T04:03:50.431Z,100169.13
2023-05-10T04:06:21.031Z,100175.28
2023-05-10T04:08:51.124Z,100166.44
2023-05-10T04:11:22.079Z,100160.78
2023-05-10T04:13:52.334Z,100173.69
2023-05-10T04:16:23.404Z,100177.41
2023-05-10T04:18:56.873Z,100171.47
2023-05-10T04:21:24.149Z,100183.00
2023-05-10T04:23:51.329Z,100184.59
2023-05-10T04:26:21.395Z,100178.41
2023-05-10T04:28:48.798Z,100184.31
2023-05-10T04:31:21.942Z,100177.84
2023-05-10T04:33:50.285Z,100189.13
2023-05-10T04:36:18.296Z,100191.50
2023-05-10T04:38:45.175Z,100192.00
2023-05-10T04:41:15.315Z,100195.22
2023-05-10T04:43:48.925Z,100192.78
2023-05-10T04:46:16.475Z,100190.59
2023-05-10T04:48:47.372Z,100195.97
2023-05-10T04:51:14.526Z,100193.53
2023-05-10T04:53:48.579Z,100195.41
2023-05-10T04:56:24.966Z,100201.03
2023-05-10T04:58:52.281Z,100197.78
2023-05-10T05:01:19.992Z,100203.66
2023-05-10T05:03:49.551Z,100197.25
2023-05-10T05:06:16.936Z,100205.03
2023-05-10T05:08:46.891Z,100207.44
2023-05-10T05:11:13.963Z,100213.59
2023-05-10T05:13:43.586Z,100210.13
2023-05-10T05:16:14.213Z,100208.81
2023-05-10T05:18:41.425Z,100207.19
2023-05-10T05:21:15.721Z,100217.94
2023-05-10T05:23:43.260Z,100214.75
2023-05-10T05:26:14.050Z,100215.25
2023-05-10T05:28:42.962Z,100212.00
2023-05-10T05:31:13.201Z,100226.22
2023-05-10T05:33:45.127Z,100223.00
2023-05-10T05:36:15.367Z,100225.38
2023-05-10T05:38:45.077Z,100216.78
2023-05-10T05:41:16.940Z,100221.03
2023-05-10T05:43:43.736Z,100213.78
2023-05-10T05:46:13.141Z,100214.09
2023-05-10T05:48:39.839Z,100217.31
2023-05-10T05:51:09.553Z,100218.91
2023-05-10T05:53:39.055Z,100214.09
2023-05-10T05:56:09.496Z,100219.50
2023-05-10T05:58:37.981Z,100219.75
2023-05-10T06:01:07.026Z,100217.31
2023-05-10T06:03:36.804Z,100220.84
2023-05-10T06:06:03.946Z,100226.53
2023-05-10T06:08:37.694Z,100215.78
2023-05-10T06:11:07.547Z,100222.75
2023-05-10T06:13:39.775Z,100219.56
2023-05-10T06:16:09.504Z,100224.34
2023-05-10T06:18:39.434Z,100223.00
2023-05-10T06:21:06.509Z,100220.00
2023-05-10T06:23:33.641Z,100226.47
2023-05-10T06:26:03.682Z,100225.97
2023-05-10T06:28:30.401Z,100224.34
2023-05-10T06:31:01.940Z,100232.94
2023-05-10T06:33:31.800Z,100236.13
2023-05-10T06:36:01.528Z,100249.59
2023-05-10T06:38:28.318Z,100246.91
2023-05-10T06:40:57.676Z,100245.31
2023-05-10T06:43:27.548Z,100244.78
2023-05-10T06:45:57.229Z,100244.28
2023-05-10T06:48:29.783Z,100243.19
2023-05-10T06:50:57.654Z,100237.81
2023-05-10T06:53:24.275Z,100241.06
2023-05-10T06:55:54.409Z,100240.00
2023-05-10T06:58:24.432Z,100238.13
2023-05-10T07:00:51.215Z,100233.06
2023-05-10T07:03:20.061Z,100229.03
2023-05-10T07:05:47.021Z,100231.72
2023-05-10T07:08:13.714Z,100232.28
2023-05-10T07:10:40.435Z,100234.69
2023-05-10T07:13:08.010Z,100229.31
2023-05-10T07:15:40.615Z,100234.16
2023-05-10T07:18:07.585Z,100227.19
2023-05-10T07:20:34.593Z,100228.53
2023-05-10T07:23:04.445Z,100233.59
2023-05-10T07:25:34.603Z,100231.72
2023-05-10T07:28:01.377Z,100232.00
2023-05-10T07:30:31.609Z,100233.91
2023-05-10T07:33:01.295Z,100232.28
2023-05-10T07:35:31.146Z,100239.25
2023-05-10T07:38:03.093Z,100237.63
2023-05-10T07:40:37.617Z,100233.09
2023-05-10T07:43:07.198Z,100233.66
2023-05-10T07:45:38.100Z,100228.28
2023-05-10T07:48:08.308Z,100222.12
2023-05-10T07:50:37.190Z,100232.06
2023-05-10T07:53:09.356Z,100226.69
2023-05-10T07:55:43.413Z,100230.16
2023-05-10T07:58:12.792Z,100227.75
2023-05-10T08:00:40.087Z,100224.25
2023-05-10T08:03:12.551Z,100222.12
2023-05-10T08:05:42.924Z,100230.44
2023-05-10T08:08:09.822Z,100222.12
2023-05-10T08:10:36.979Z,100229.88
2023-05-10T08:13:03.768Z,100232.06
2023-05-10T08:15:37.301Z,100229.88
2023-05-10T08:18:04.150Z,100233.66
2023-05-10T08:20:35.037Z,100224.50
2023-05-10T08:23:04.175Z,100229.88
2023-05-10T08:25:35.019Z,100228.28
2023-05-10T08:28:05.214Z,100220.22
2023-05-10T08:30:34.838Z,100226.69
2023-05-10T08:33:05.007Z,100220.50
2023-05-10T08:35:35.356Z,100222.63
2023-05-10T08:38:05.774Z,100210.00
2023-05-10T08:40:32.590Z,100222.91
2023-05-10T08:43:12.729Z,100215.12
2023-05-10T08:45:43.407Z,100219.69
2023-05-10T08:48:11.026Z,100219.69
2023-05-10T08:50:42.126Z,100212.72
2023-05-10T08:53:13.310Z,100219.69
2023-05-10T08:55:47.060Z,100218.09
2023-05-10T08:58:14.157Z,100217.31
2023-05-10T09:00:47.071Z,100219.44
2023-05-10T09:03:14.186Z,100220.28
2023-05-10T09:05:43.803Z,100217.59
2023-05-10T09:08:10.688Z,100224.03
2023-05-10T09:10:38.233Z,100215.47
2023-05-10T09:13:09.733Z,100212.78
2023-05-10T09:15:40.067Z,100222.72
2023-05-10T09:18:06.625Z,100212.53
2023-05-10T09:20:33.408Z,100219.00
2023-05-10T09:23:04.366Z,100207.16
2023-05-10T09:25:34.351Z,100201.00
2023-05-10T09:28:10.358Z,100201.50
2023-05-10T09:30:40.363Z,100201.25
2023-05-10T09:33:10.548Z,100205.22
2023-05-10T09:35:37.396Z,100197.19
2023-05-10T09:38:08.508Z,100205.22
2023-05-10T09:40:35.399Z,100202.53
2023-05-10T09:43:07.479Z,100196.37
2023-05-10T09:45:37.705Z,100203.34
2023-05-10T09:48:08.652Z,100200.97
2023-05-10T09:50:42.174Z,100189.69
2023-05-10T09:53:16.964Z,100202.31
2023-05-10T09:55:44.678Z,100199.34
2023-05-10T09:58:16.908Z,100195.28
2023-05-10T10:00:45.736Z,100188.06
2023-05-10T10:03:16.758Z,100191.56
2023-05-10T10:05:56.363Z,100192.59
2023-05-10T10:08:29.516Z,100195.03
2023-05-10T10:11:01.941Z,100190.47
2023-05-10T10:13:38.618Z,100194.75
2023-05-10T10:16:09.280Z,100181.31
2023-05-10T10:18:42.936Z,100191.25
2023-05-10T10:21:10.593Z,100180.53
2023-05-10T10:23:41.375Z,100191.25
2023-05-10T10:26:13.116Z,100175.69
2023-05-10T10:28:59.476Z,100182.66
2023-05-10T10:31:36.406Z,100185.84
2023-05-10T10:34:25.156Z,100187.72
2023-05-10T10:36:56.084Z,100181.28
2023-05-10T10:39:25.809Z,100180.22
2023-05-10T10:41:58.947Z,100181.00
2023-05-10T10:44:32.098Z,100172.66
2023-05-10T10:47:11.243Z,100171.88
2023-05-10T10:49:41.406Z,100171.88
2023-05-10T10:52:35.544Z,100180.22
2023-05-10T10:55:05.699Z,100170.78
2023-05-10T10:57:35.078Z,100167.28
2023-05-10T11:00:20.886Z,100168.91
2023-05-10T11:02:52.322Z,100164.34
2023-05-10T11:05:26.301Z,100160.88
2023-05-10T11:08:00.343Z,100157.88
2023-05-10T11:10:39.448Z,100149.84
2023-05-10T11:13:13.368Z,100156.78
2023-05-10T11:15:51.228Z,100156.00
2023-05-10T11:18:23.744Z,100156.78
2023-05-10T11:21:00.021Z,100160.28
2023-05-10T11:23:34.011Z,100152.22
2023-05-10T11:26:04.347Z,100153.31
2023-05-10T11:28:34.947Z,100147.16
2023-05-10T11:31:01.920Z,100140.69
2023-05-10T11:33:28.814Z,100140.69
2023-05-10T11:35:58.974Z,100139.91
2023-05-10T11:38:25.927Z,100143.38
2023-05-10T11:40:54.909Z,100133.72
2023-05-10T11:43:26.848Z,100133.72
2023-05-10T11:45:54.234Z,100128.87
2023-05-10T11:48:26.481Z,100122.69
2023-05-10T11:50:53.367Z,100130.75
2023-05-10T11:53:25.817Z,100120.81
2023-05-10T11:55:55.768Z,100120.03
2023-05-10T11:58:23.572Z,100123.50
2023-05-10T12:00:57.750Z,100109.00
2023-05-10T12:03:24.939Z,100113.59
2023-05-10T12:05:53.433Z,100122.44
2023-05-10T12:08:27.612Z,100109.00
2023-05-10T12:10:55.384Z,100109.00
2023-05-10T12:13:22.125Z,100115.97
2023-05-10T12:15:48.948Z,100115.97
2023-05-10T12:18:16.078Z,100109.50
2023-05-10T12:20:42.826Z,100106.84
2023-05-10T12:23:11.135Z,100107.94
2023-05-10T12:25:41.463Z,100106.84
2023-05-10T12:28:09.405Z,100102.56
2023-05-10T12:30:39.904Z,100111.69
2023-05-10T12:33:16.322Z,100107.94
2023-05-10T12:35:50.469Z,100106.34
2023-05-10T12:38:32.390Z,100117.06
2023-05-10T12:41:03.260Z,100102.84
2023-05-10T12:43:32.934Z,100099.34
2023-05-10T12:46:07.487Z,100107.38
2023-05-10T12:48:37.326Z,100095.59
2023-05-10T12:51:07.509Z,100090.22
2023-05-10T12:53:34.330Z,100096.09
2023-05-10T12:56:04.010Z,100093.41
2023-05-10T12:58:37.176Z,100082.69
2023-05-10T13:01:04.331Z,100086.94
2023-05-10T13:03:32.880Z,100082.41
2023-05-10T13:05:59.709Z,100075.94
2023-05-10T13:08:31.019Z,100082.09
2023-05-10T13:11:03.684Z,100078.09
2023-05-10T13:13:33.322Z,100070.34
2023-05-10T13:16:00.178Z,100071.13
2023-05-10T13:18:30.006Z,100071.13
2023-05-10T13:20:56.868Z,100080.00
2023-05-10T13:23:30.464Z,100062.78
2023-05-10T13:25:59.904Z,100061.19
2023-05-10T13:28:29.975Z,100066.31
2023-05-10T13:30:58.200Z,100062.78
2023-05-10T13:33:26.243Z,100059.03
2023-05-10T13:35:56.018Z,100059.84
2023-05-10T13:38:25.828Z,100049.91
2023-05-10T13:40:52.980Z,100044.53
2023-05-10T13:43:19.940Z,100051.50
2023-05-10T13:45:46.591Z,100047.75
2023-05-10T13:48:18.826Z,100049.34
2023-05-10T13:50:48.673Z,100057.87
2023-05-10T13:53:17.947Z,100047.16
2023-05-10T13:56:03.303Z,100057.87
2023-05-10T13:58:33.552Z,100050.44
2023-05-10T14:01:00.177Z,100046.91
2023-05-10T14:03:32.972Z,100046.91
2023-05-10T14:06:00.537Z,100043.97
2023-05-10T14:08:30.249Z,100045.06
2023-05-10T14:11:05.259Z,100038.59
2023-05-10T14:13:38.312Z,100038.31
2023-05-10T14:16:08.797Z,100039.09
2023-05-10T14:18:36.446Z,100038.03
2023-05-10T14:21:06.236Z,100035.91
2023-05-10T14:23:35.594Z,100031.34
2023-05-10T14:26:11.636Z,100030.53
2023-05-10T14:28:40.061Z,100027.28
2023-05-10T14:31:09.623Z,100027.50
2023-05-10T14:33:39.598Z,100029.91
2023-05-10T14:36:07.041Z,100024.00
2023-05-10T14:38:33.812Z,100024.53
2023-05-10T14:41:04.538Z,100022.34
2023-05-10T14:43:33.948Z,100018.59
2023-05-10T14:46:03.404Z,100027.16
2023-05-10T14:48:33.030Z,100023.37
2023-05-10T14:51:02.469Z,100022.31
2023-05-10T14:53:38.063Z,100027.37
2023-05-10T14:56:07.246Z,100026.59
2023-05-10T14:58:34.366Z,100020.41
2023-05-10T15:01:04.832Z,100022.00
2023-05-10T15:03:35.648Z,100020.13
2023-05-10T15:06:02.998Z,100022.81
2023-05-10T15:08:36.382Z,100027.09
2023-05-10T15:11:06.872Z,100026.03
2023-05-10T15:13:33.898Z,100020.66
2023-05-10T15:16:05.290Z,100022.25
2023-05-10T15:18:35.428Z,100031.38
2023-05-10T15:21:11.146Z,100026.03
2023-05-10T15:23:41.596Z,100012.06
2023-05-10T15:26:08.188Z,100024.41
2023-05-10T15:28:34.954Z,100022.81
2023-05-10T15:31:02.238Z,100026.59
2023-05-10T15:33:29.594Z,100020.41
2023-05-10T15:35:56.164Z,100015.06
2023-05-10T15:38:25.925Z,100015.53
2023-05-10T15:40:59.674Z,100017.66
2023-05-10T15:43:26.369Z,100020.06
2023-05-10T15:45:53.055Z,100020.06
2023-05-10T15:48:23.033Z,100015.22
2023-05-10T15:50:49.927Z,100016.78
2023-05-10T15:53:24.606Z,100008.75
2023-05-10T15:55:54.364Z,99998.78
2023-05-10T15:58:21.518Z,100003.37
2023-05-10T16:00:51.763Z,100003.37
2023-05-10T16:03:19.102Z,100007.16
2023-05-10T16:05:52.781Z,100012.53
2023-05-10T16:08:19.880Z,100009.31
2023-05-10T16:10:53.456Z,100011.72
2023-05-10T16:13:23.330Z,100010.13
2023-05-10T16:15:50.078Z,100012.53
2023-05-10T16:18:17.292Z,100017.59
2023-05-10T16:20:44.821Z,100017.88
2023-05-10T16:23:15.159Z,100013.09
2023-05-10T16:25:42.325Z,100011.44
2023-05-10T16:28:09.442Z,100017.81
2023-05-10T16:30:39.873Z,100017.31
2023-05-10T16:33:07.097Z,100012.44
2023-05-10T16:35:34.282Z,100015.94
2023-05-10T16:38:04.213Z,100006.56
2023-05-10T16:40:37.480Z,100018.12
2023-05-10T16:43:10.358Z,100013.75
2023-05-10T16:45:39.474Z,100016.16
2023-05-10T16:48:11.757Z,100016.94
2023-05-10T16:50:50.159Z,100021.53
2023-05-10T16:53:20.776Z,100022.97
2023-05-10T16:55:51.038Z,100020.50
2023-05-10T16:58:21.367Z,100020.22
2023-05-10T17:00:48.573Z,100022.12
2023-05-10T17:03:19.196Z,100028.28
2023-05-10T17:05:53.937Z,100025.06
2023-05-10T17:08:25.279Z,100032.88
2023-05-10T17:10:55.282Z,100032.88
2023-05-10T17:13:25.098Z,100030.44
2023-05-10T17:16:00.665Z,100032.88
2023-05-10T17:18:31.242Z,100026.91
2023-05-10T17:21:04.505Z,100035.47
2023-05-10T17:23:35.019Z,100041.34
2023-05-10T17:26:04.825Z,100040.28
2023-05-10T17:28:34.792Z,100037.28
2023-05-10T17:31:02.564Z,100042.38
2023-05-10T17:33:32.669Z,100045.59
2023-05-10T17:35:59.620Z,100043.69
2023-05-10T17:38:34.725Z,100049.31
2023-05-10T17:41:11.696Z,100046.91
2023-05-10T17:43:38.992Z,100045.53
2023-05-10T17:46:10.912Z,100048.28
2023-05-10T17:48:37.764Z,100045.59
2023-05-10T17:51:08.262Z,100048.28
2023-05-10T17:53:41.544Z,100052.62
2023-05-10T17:56:08.885Z,100048.28
2023-05-10T17:58:48.793Z,100053.63
2023-05-10T18:01:16.524Z,100049.84
2023-05-10T18:03:44.340Z,100055.81
2023-05-10T18:06:12.046Z,100054.44
2023-05-10T18:08:46.910Z,100063.28
2023-05-10T18:11:20.447Z,100062.19
2023-05-10T18:13:47.685Z,100059.00
2023-05-10T18:16:14.667Z,100063.84
2023-05-10T18:18:44.607Z,100061.78
2023-05-10T18:21:17.408Z,100068.75
2023-05-10T18:23:44.883Z,100063.38
2023-05-10T18:26:15.193Z,100063.66
2023-05-10T18:28:51.278Z,100074.09
2023-05-10T18:31:24.828Z,100079.47
2023-05-10T18:33:52.226Z,100076.28
2023-05-10T18:36:24.233Z,100075.47
2023-05-10T18:38:53.058Z,100077.37
2023-05-10T18:41:23.346Z,100079.25
2023-05-10T18:43:56.545Z,100082.25
2023-05-10T18:46:28.343Z,100092.16
2023-05-10T18:48:59.951Z,100094.34
2023-05-10T18:51:30.667Z,100096.72
2023-05-10T18:54:03.116Z,100091.37
2023-05-10T18:56:33.253Z,100093.78
2023-05-10T18:59:01.198Z,100098.91
2023-05-10T19:01:30.237Z,100103.19
2023-05-10T19:03:57.273Z,100099.94
2023-05-10T19:06:30.107Z,100105.81
2023-05-10T19:09:01.169Z,100103.12
2023-05-10T19:11:36.429Z,100105.56
2023-05-10T19:14:06.854Z,100108.50
2023-05-10T19:16:35.050Z,100117.09
2023-05-10T19:19:07.145Z,100118.69
2023-05-10T19:21:39.049Z,100118.69
2023-05-10T19:24:17.422Z,100122.97
2023-05-10T19:26:48.487Z,100127.28
2023-05-10T19:29:25.871Z,100127.84
2023-05-10T19:31:55.164Z,100124.63
2023-05-10T19:34:30.387Z,100130.59
2023-05-10T19:37:01.585Z,100123.59
2023-05-10T19:39:35.116Z,100128.69
2023-05-10T19:42:06.167Z,100127.06
2023-05-10T19:44:36.608Z,100130.34
2023-05-10T19:47:04.066Z,100132.75
2023-05-10T19:49:35.203Z,100131.16
2023-05-10T19:52:05.448Z,100129.56
2023-05-10T19:54:35.255Z,100137.09
2023-05-10T19:57:03.591Z,100131.72
2023-05-10T19:59:39.846Z,100130.91
2023-05-10T20:02:11.748Z,100133.91
2023-05-10T20:04:39.305Z,100128.53
2023-05-10T20:07:12.070Z,100132.28
2023-05-10T20:09:42.628Z,100131.47
2023-05-10T20:12:10.056Z,100130.69
2023-05-10T20:14:42.575Z,100135.25
2023-05-10T20:17:14.688Z,100135.25
2023-05-10T20:19:45.053Z,100132.84
2023-05-10T20:22:16.458Z,100139.84
2023-05-10T20:24:44.030Z,100138.22
2023-05-10T20:27:17.207Z,100133.94
2023-05-10T20:29:49.964Z,100133.94
2023-05-10T20:32:24.655Z,100132.34
2023-05-10T20:34:55.355Z,100133.44
2023-05-10T20:37:23.916Z,100140.41
2023-05-10T20:40:00.449Z,100133.44
2023-05-10T20:42:32.056Z,100137.19
2023-05-10T20:45:02.367Z,100142.56
2023-05-10T20:47:33.106Z,100135.59
2023-05-10T20:50:06.693Z,100135.59
2023-05-10T20:52:39.944Z,100140.97
2023-05-10T20:55:07.370Z,100136.69
2023-05-10T20:57:40.320Z,100132.41
2023-05-10T21:00:13.318Z,100139.38
2023-05-10T21:02:45.899Z,100132.41
2023-05-10T21:05:20.795Z,100139.66
2023-05-10T21:08:02.762Z,100130.00
2023-05-10T21:10:33.266Z,100127.59
2023-05-10T21:13:08.613Z,100132.97
2023-05-10T21:15:39.038Z,100135.66
2023-05-10T21:18:06.805Z,100129.75
2023-05-10T21:20:37.681Z,100132.44
2023-05-10T21:23:11.897Z,100135.13
2023-05-10T21:25:41.988Z,100129.25
2023-05-10T21:28:13.780Z,100128.16
2023-05-10T21:30:50.046Z,100123.88
2023-05-10T21:33:23.044Z,100131.94
2023-05-10T21:35:53.268Z,100126.56
2023-05-10T21:38:23.780Z,100128.72
2023-05-10T21:40:56.244Z,100127.66
2023-05-10T21:43:23.485Z,100128.72
2023-05-10T21:46:01.115Z,100135.97
2023-05-10T21:48:33.414Z,100137.88
2023-05-10T21:51:00.652Z,100134.69
2023-05-10T21:53:30.309Z,100127.12
2023-05-10T21:56:04.304Z,100130.91
2023-05-10T21:58:35.757Z,100134.69
2023-05-10T22:01:07.777Z,100134.69
2023-05-10T22:03:38.519Z,100134.69
2023-05-10T22:06:09.162Z,100142.75
2023-05-10T22:08:39.735Z,100145.41
2023-05-10T22:11:11.021Z,100136.03
2023-05-10T22:13:44.794Z,100141.69
2023-05-10T22:16:12.135Z,100135.50
2023-05-10T22:18:44.329Z,100139.03
2023-05-10T22:21:12.976Z,100145.97
2023-05-10T22:23:44.217Z,100144.38
2023-05-10T22:26:14.373Z,100148.94
2023-05-10T22:28:42.068Z,100150.03
2023-05-10T22:31:16.622Z,100150.03
2023-05-10T22:33:46.937Z,100151.38
2023-05-10T22:36:14.144Z,100153.00
2023-05-10T22:38:50.260Z,100151.12
2023-05-10T22:41:23.993Z,100144.94
2023-05-10T22:43:53.685Z,100142.75
2023-05-10T22:46:24.826Z,100132.03
2023-05-10T22:48:52.574Z,100138.78
2023-05-10T22:51:20.136Z,100143.31
2023-05-10T22:53:50.317Z,100141.72
2023-05-10T22:56:18.248Z,100143.91
2023-05-10T22:58:45.649Z,100138.53
2023-05-10T23:01:16.261Z,100142.28
2023-05-10T23:03:48.170Z,100137.22
2023-05-10T23:06:20.245Z,100142.28
2023-05-10T23:08:51.551Z,100139.09
2023-05-10T23:11:18.903Z,100142.88
2023-05-10T23:13:48.844Z,100136.72
2023-05-10T23:16:19.529Z,100142.88
2023-05-10T23:18:52.588Z,100141.25
2023-05-10T23:21:22.989Z,100141.84
2023-05-10T23:23:53.483Z,100139.94
2023-05-10T23:26:21.022Z,100148.81
2023-05-10T23:28:50.902Z,100145.31
2023-05-10T23:31:18.065Z,100148.28
2023-05-10T23:33:46.633Z,100141.84
2023-05-10T23:36:14.814Z,100145.31
2023-05-10T23:38:48.578Z,100147.22
2023-05-10T23:41:16.799Z,100145.87
2023-05-10T23:43:47.124Z,100141.00
2023-05-10T23:46:14.346Z,100150.94
2023-05-10T23:48:44.446Z,100142.41
2023-05-10T23:51:13.564Z,100143.50
2023-05-10T23:53:44.273Z,100143.50
2023-05-10T23:56:13.004Z,100146.16
2023-05-10T23:58:43.515Z,100141.87
